createdAt,value
2017-09-25T00:00:56.308Z,13.6
2017-09-25T00:02:05.177Z,13.66
2017-09-25T00:03:14.372Z,13.58
2017-09-25T00:04:22.916Z,13.62
2017-09-25T00:05:31.792Z,13.63
2017-09-25T00:06:40.663Z,13.55
2017-09-25T00:07:49.528Z,13.55
2017-09-25T00:08:58.716Z,13.5
2017-09-25T00:10:07.262Z,13.53
2017-09-25T00:11:15.804Z,13.5
2017-09-25T00:12:25.237Z,13.53
2017-09-25T00:13:34.100Z,13.53
2017-09-25T00:14:43.294Z,13.42
2017-09-25T00:15:51.837Z,13.51
2017-09-25T00:17:00.379Z,13.45
2017-09-25T00:18:09.250Z,13.45
2017-09-25T00:19:18.119Z,13.45
2017-09-25T00:20:26.662Z,13.47
2017-09-25T00:21:35.205Z,13.47
2017-09-25T00:22:43.747Z,13.57
2017-09-25T00:23:52.614Z,13.39
2017-09-25T00:25:01.484Z,13.44
2017-09-25T00:26:10.351Z,13.45
2017-09-25T00:27:19.551Z,13.39
2017-09-25T00:28:28.418Z,13.54
2017-09-25T00:29:37.282Z,13.39
2017-09-25T00:30:45.825Z,13.45
2017-09-25T00:31:54.367Z,13.45
2017-09-25T00:33:02.913Z,13.51
2017-09-25T00:34:11.778Z,13.44
2017-09-25T00:35:20.325Z,13.44
2017-09-25T00:36:28.870Z,13.5
2017-09-25T00:37:37.734Z,13.53
2017-09-25T00:38:46.278Z,13.53
2017-09-25T00:39:55.471Z,13.48
2017-09-25T00:41:04.018Z,13.48
2017-09-25T00:42:12.565Z,13.55
2017-09-25T00:43:21.108Z,13.48
2017-09-25T00:44:29.649Z,13.57
2017-09-25T00:45:38.517Z,13.48
2017-09-25T00:46:47.380Z,13.48
2017-09-25T00:47:55.923Z,13.48
2017-09-25T00:49:04.794Z,13.5
2017-09-25T00:50:13.339Z,13.5
2017-09-25T00:51:22.207Z,13.53
2017-09-25T00:52:30.751Z,13.57
2017-09-25T00:53:39.616Z,13.5
2017-09-25T00:54:48.480Z,13.62
2017-09-25T00:55:57.024Z,13.54
2017-09-25T00:57:06.224Z,13.57
2017-09-25T00:58:14.770Z,13.62
2017-09-25T00:59:23.634Z,13.53
2017-09-25T01:00:32.178Z,13.53
2017-09-25T01:01:40.723Z,13.66
2017-09-25T01:02:49.266Z,13.6
2017-09-25T01:03:58.135Z,13.65
2017-09-25T01:05:06.681Z,13.62
2017-09-25T01:06:15.548Z,13.55
2017-09-25T01:07:24.090Z,13.55
2017-09-25T01:08:32.636Z,13.66
2017-09-25T01:09:41.179Z,13.6
2017-09-25T01:10:49.756Z,13.57
2017-09-25T01:11:58.592Z,13.6
2017-09-25T01:13:07.138Z,13.63
2017-09-25T01:14:15.683Z,13.57
2017-09-25T01:15:24.551Z,13.62
2017-09-25T01:16:33.417Z,13.58
2017-09-25T01:17:42.281Z,13.72
2017-09-25T01:18:50.889Z,13.63
2017-09-25T01:19:59.750Z,13.79
2017-09-25T01:21:08.616Z,13.72
2017-09-25T01:22:17.481Z,13.63
2017-09-25T01:23:26.024Z,13.72
2017-09-25T01:24:34.568Z,13.6
2017-09-25T01:25:43.435Z,13.78
2017-09-25T01:26:51.981Z,13.78
2017-09-25T01:28:00.849Z,13.66
2017-09-25T01:29:09.394Z,13.66
2017-09-25T01:30:17.934Z,13.58
2017-09-25T01:31:26.798Z,13.68
2017-09-25T01:32:35.339Z,13.6
2017-09-25T01:33:44.203Z,13.6
2017-09-25T01:34:52.743Z,13.66
2017-09-25T01:36:01.607Z,13.58
2017-09-25T01:37:10.477Z,13.51
2017-09-25T01:38:19.342Z,13.57
2017-09-25T01:39:28.207Z,13.48
2017-09-25T01:40:37.392Z,13.47
2017-09-25T01:41:45.935Z,13.48
2017-09-25T01:42:54.479Z,13.48
2017-09-25T01:44:03.344Z,13.45
2017-09-25T01:45:12.534Z,13.45
2017-09-25T01:46:21.401Z,13.45
2017-09-25T01:47:29.945Z,13.39
2017-09-25T01:48:38.808Z,13.42
2017-09-25T01:49:47.670Z,13.4
2017-09-25T01:50:56.533Z,13.42
2017-09-25T01:52:05.728Z,13.37
2017-09-25T01:53:14.271Z,13.4
2017-09-25T01:54:23.459Z,13.39
2017-09-25T01:55:32.999Z,13.37
2017-09-25T01:56:41.861Z,13.36
2017-09-25T01:57:50.401Z,13.4
2017-09-25T01:58:59.267Z,13.36
2017-09-25T02:00:07.809Z,13.39
2017-09-25T02:01:16.356Z,13.32
2017-09-25T02:02:24.903Z,13.36
2017-09-25T02:03:33.445Z,13.31
2017-09-25T02:04:41.988Z,13.21
2017-09-25T02:05:51.182Z,13.21
2017-09-25T02:07:00.052Z,13.2
2017-09-25T02:08:08.920Z,13.2
2017-09-25T02:09:17.464Z,13.25
2017-09-25T02:10:26.023Z,13.25
2017-09-25T02:11:34.567Z,13.17
2017-09-25T02:12:43.109Z,13.28
2017-09-25T02:13:51.651Z,13.29
2017-09-25T02:15:00.195Z,13.17
2017-09-25T02:16:09.383Z,13.2
2017-09-25T02:17:17.925Z,13.21
2017-09-25T02:18:26.464Z,13.24
2017-09-25T02:19:35.330Z,13.24
2017-09-25T02:20:44.372Z,13.28
2017-09-25T02:21:53.239Z,13.24
2017-09-25T02:23:01.779Z,13.25
2017-09-25T02:24:10.966Z,13.17
2017-09-25T02:25:19.510Z,13.2
2017-09-25T02:26:28.053Z,13.36
2017-09-25T02:27:36.918Z,13.19
2017-09-25T02:28:45.784Z,13.19
2017-09-25T02:29:54.328Z,13.24
2017-09-25T02:31:03.192Z,13.2
2017-09-25T02:32:12.052Z,13.17
2017-09-25T02:33:20.596Z,13.25
2017-09-25T02:34:29.138Z,13.1
2017-09-25T02:35:38.325Z,13.13
2017-09-25T02:36:47.334Z,13.06
2017-09-25T02:37:56.528Z,13.06
2017-09-25T02:39:05.721Z,13.06
2017-09-25T02:40:14.346Z,12.96
2017-09-25T02:41:23.106Z,12.94
2017-09-25T02:42:31.770Z,12.96
2017-09-25T02:43:40.351Z,12.91
2017-09-25T02:44:49.372Z,12.94
2017-09-25T02:45:58.409Z,12.98
2017-09-25T02:47:07.101Z,12.94
2017-09-25T02:48:16.392Z,13.03
2017-09-25T02:49:26.153Z,12.96
2017-09-25T02:50:35.344Z,13.03
2017-09-25T02:51:44.211Z,13.01
2017-09-25T02:52:53.079Z,12.98
2017-09-25T02:54:02.199Z,12.96
2017-09-25T02:55:11.064Z,12.98
2017-09-25T02:56:19.604Z,12.96
2017-09-25T02:57:28.146Z,12.94
2017-09-25T02:58:37.014Z,12.86
2017-09-25T02:59:45.878Z,12.89
2017-09-25T03:00:54.422Z,12.86
2017-09-25T03:02:03.287Z,12.86
2017-09-25T03:03:12.154Z,12.8
2017-09-25T03:04:21.020Z,12.88
2017-09-25T03:05:29.882Z,12.77
2017-09-25T03:06:38.427Z,12.86
2017-09-25T03:07:47.293Z,12.78
2017-09-25T03:08:55.837Z,12.74
2017-09-25T03:10:04.380Z,12.73
2017-09-25T03:11:13.273Z,12.73
2017-09-25T03:12:22.148Z,12.77
2017-09-25T03:13:30.693Z,12.73
2017-09-25T03:14:39.877Z,12.76
2017-09-25T03:15:48.745Z,12.71
2017-09-25T03:16:57.612Z,12.7
2017-09-25T03:18:06.156Z,12.69
2017-09-25T03:19:14.700Z,12.73
2017-09-25T03:20:23.241Z,12.69
2017-09-25T03:21:31.784Z,12.78
2017-09-25T03:22:40.328Z,12.77
2017-09-25T03:23:48.869Z,12.8
2017-09-25T03:24:57.736Z,12.84
2017-09-25T03:26:06.928Z,12.8
2017-09-25T03:27:15.795Z,12.84
2017-09-25T03:28:24.659Z,12.89
2017-09-25T03:29:33.521Z,12.98
2017-09-25T03:30:42.066Z,12.81
2017-09-25T03:31:50.605Z,12.92
2017-09-25T03:32:59.793Z,12.83
2017-09-25T03:34:08.980Z,12.8
2017-09-25T03:35:17.520Z,12.83
2017-09-25T03:36:27.159Z,12.78
2017-09-25T03:37:36.024Z,12.73
2017-09-25T03:38:45.204Z,12.76
2017-09-25T03:39:54.070Z,12.78
2017-09-25T03:41:02.612Z,12.8
2017-09-25T03:42:11.477Z,12.73
2017-09-25T03:43:20.662Z,12.83
2017-09-25T03:44:29.205Z,12.8
2017-09-25T03:45:38.392Z,12.8
2017-09-25T03:46:47.586Z,12.77
2017-09-25T03:47:56.451Z,12.83
2017-09-25T03:49:05.313Z,12.78
2017-09-25T03:50:14.178Z,12.89
2017-09-25T03:51:23.044Z,12.84
2017-09-25T03:52:31.588Z,12.92
2017-09-25T03:53:40.450Z,12.96
2017-09-25T03:54:49.390Z,12.99
2017-09-25T03:55:58.585Z,13.02
2017-09-25T03:57:07.776Z,13.07
2017-09-25T03:58:16.642Z,13.03
2017-09-25T03:59:25.507Z,13.03
2017-09-25T04:00:34.368Z,13.11
2017-09-25T04:01:42.912Z,13.09
2017-09-25T04:02:51.780Z,13.13
2017-09-25T04:04:00.647Z,13.19
2017-09-25T04:05:09.193Z,13.16
2017-09-25T04:06:18.061Z,13.14
2017-09-25T04:07:27.249Z,13.16
2017-09-25T04:08:36.111Z,13.2
2017-09-25T04:09:44.651Z,13.19
2017-09-25T04:10:53.195Z,13.19
2017-09-25T04:12:02.063Z,13.21
2017-09-25T04:13:10.932Z,13.25
2017-09-25T04:14:20.124Z,13.27
2017-09-25T04:15:28.666Z,13.29
2017-09-25T04:16:37.211Z,13.36
2017-09-25T04:17:45.752Z,13.37
2017-09-25T04:18:54.621Z,13.42
2017-09-25T04:20:03.164Z,13.39
2017-09-25T04:21:11.708Z,13.45
2017-09-25T04:22:20.254Z,13.5
2017-09-25T04:23:28.794Z,13.51
2017-09-25T04:24:37.662Z,13.54
2017-09-25T04:25:46.204Z,13.51
2017-09-25T04:26:54.747Z,13.55
2017-09-25T04:28:03.936Z,13.54
2017-09-25T04:29:12.478Z,13.58
2017-09-25T04:30:21.342Z,13.57
2017-09-25T04:31:30.531Z,13.63
2017-09-25T04:32:39.397Z,13.54
2017-09-25T04:33:48.262Z,13.69
2017-09-25T04:34:56.806Z,13.6
2017-09-25T04:36:05.349Z,13.66
2017-09-25T04:37:14.216Z,13.63
2017-09-25T04:38:22.758Z,13.73
2017-09-25T04:39:31.622Z,13.66
2017-09-25T04:40:40.165Z,13.68
2017-09-25T04:41:48.705Z,13.76
2017-09-25T04:42:57.896Z,13.68
2017-09-25T04:44:06.437Z,13.68
2017-09-25T04:45:15.620Z,13.73
2017-09-25T04:46:24.481Z,13.69
2017-09-25T04:47:33.348Z,13.73
2017-09-25T04:48:41.891Z,13.76
2017-09-25T04:49:51.078Z,13.75
2017-09-25T04:50:59.620Z,13.72
2017-09-25T04:52:08.159Z,13.79
2017-09-25T04:53:17.027Z,13.76
2017-09-25T04:54:26.222Z,13.78
2017-09-25T04:55:35.412Z,13.7
2017-09-25T04:56:43.950Z,13.75
2017-09-25T04:57:52.493Z,13.7
2017-09-25T04:59:01.036Z,13.76
2017-09-25T05:00:09.576Z,13.79
2017-09-25T05:01:18.446Z,13.86
2017-09-25T05:02:27.635Z,13.79
2017-09-25T05:03:36.178Z,13.78
2017-09-25T05:04:44.720Z,13.69
2017-09-25T05:05:53.589Z,13.7
2017-09-25T05:07:02.130Z,13.7
2017-09-25T05:08:10.995Z,13.7
2017-09-25T05:09:19.863Z,13.73
2017-09-25T05:10:28.405Z,13.76
2017-09-25T05:11:36.945Z,13.73
2017-09-25T05:12:46.134Z,13.73
2017-09-25T05:13:54.677Z,13.68
2017-09-25T05:15:03.540Z,13.76
2017-09-25T05:16:12.735Z,13.75
2017-09-25T05:17:21.604Z,13.76
2017-09-25T05:18:30.788Z,13.75
2017-09-25T05:19:39.652Z,13.75
2017-09-25T05:20:48.197Z,13.66
2017-09-25T05:21:57.384Z,13.7
2017-09-25T05:23:06.255Z,13.81
2017-09-25T05:24:15.124Z,13.79
2017-09-25T05:25:23.988Z,13.73
2017-09-25T05:26:32.532Z,13.84
2017-09-25T05:27:41.729Z,13.73
2017-09-25T05:28:50.594Z,13.75
2017-09-25T05:29:59.137Z,13.75
2017-09-25T05:31:08.002Z,13.76
2017-09-25T05:32:16.544Z,13.76
2017-09-25T05:33:25.421Z,13.87
2017-09-25T05:34:33.969Z,13.76
2017-09-25T05:35:42.514Z,13.78
2017-09-25T05:36:51.059Z,13.87
2017-09-25T05:37:59.604Z,13.78
2017-09-25T05:39:08.465Z,13.86
2017-09-25T05:40:17.332Z,13.75
2017-09-25T05:41:25.874Z,13.87
2017-09-25T05:42:35.386Z,13.81
2017-09-25T05:43:44.257Z,13.75
2017-09-25T05:44:54.014Z,13.81
2017-09-25T05:46:05.169Z,13.78
2017-09-25T05:47:16.928Z,13.79
2017-09-25T05:48:27.971Z,13.78
2017-09-25T05:49:36.577Z,13.83
2017-09-25T05:50:45.120Z,13.87
2017-09-25T05:51:53.661Z,13.86
2017-09-25T05:53:02.204Z,13.84
2017-09-25T05:54:11.072Z,13.83
2017-09-25T05:55:20.263Z,13.86
2017-09-25T05:56:29.129Z,13.87
2017-09-25T05:57:38.319Z,13.78
2017-09-25T05:58:47.191Z,13.86
2017-09-25T05:59:55.735Z,13.86
2017-09-25T06:01:04.278Z,13.88
2017-09-25T06:02:13.145Z,13.88
2017-09-25T06:03:22.329Z,13.83
2017-09-25T06:04:31.520Z,13.86
2017-09-25T06:05:40.064Z,13.9
2017-09-25T06:06:48.605Z,13.93
2017-09-25T06:07:57.473Z,13.88
2017-09-25T06:09:06.338Z,13.87
2017-09-25T06:10:15.208Z,13.95
2017-09-25T06:11:24.404Z,13.95
2017-09-25T06:12:33.271Z,13.97
2017-09-25T06:13:42.460Z,13.93
2017-09-25T06:14:51.003Z,13.99
2017-09-25T06:16:00.192Z,14.01
2017-09-25T06:17:08.743Z,13.99
2017-09-25T06:18:17.302Z,13.95
2017-09-25T06:19:25.846Z,13.97
2017-09-25T06:20:34.390Z,13.95
2017-09-25T06:21:42.938Z,13.95
2017-09-25T06:22:51.485Z,14.02
2017-09-25T06:24:00.024Z,13.97
2017-09-25T06:25:08.890Z,13.99
2017-09-25T06:26:17.433Z,14.01
2017-09-25T06:27:25.982Z,13.99
2017-09-25T06:28:34.855Z,14.06
2017-09-25T06:29:44.041Z,14.08
2017-09-25T06:30:52.587Z,14.05
2017-09-25T06:32:01.454Z,14.02
2017-09-25T06:33:09.997Z,14.11
2017-09-25T06:34:18.538Z,14.11
2017-09-25T06:35:27.523Z,14.19
2017-09-25T06:36:36.308Z,14.11
2017-09-25T06:37:44.950Z,14.15
2017-09-25T06:38:53.496Z,14.16
2017-09-25T06:40:02.526Z,14.16
2017-09-25T06:41:11.847Z,14.16
2017-09-25T06:42:20.413Z,14.23
2017-09-25T06:43:29.414Z,14.21
2017-09-25T06:44:37.968Z,14.24
2017-09-25T06:45:46.841Z,14.26
2017-09-25T06:46:55.384Z,14.19
2017-09-25T06:48:04.574Z,14.28
2017-09-25T06:49:13.444Z,14.23
2017-09-25T06:50:22.314Z,14.34
2017-09-25T06:51:31.210Z,14.34
2017-09-25T06:52:40.397Z,14.28
2017-09-25T06:53:49.590Z,14.34
2017-09-25T06:54:58.138Z,14.38
2017-09-25T06:56:07.339Z,14.44
2017-09-25T06:57:16.538Z,14.36
2017-09-25T06:58:25.407Z,14.39
2017-09-25T06:59:34.282Z,14.38
2017-09-25T07:00:43.154Z,14.41
2017-09-25T07:01:52.914Z,14.39
2017-09-25T07:03:01.467Z,14.48
2017-09-25T07:04:10.338Z,14.42
2017-09-25T07:05:19.242Z,14.36
2017-09-25T07:06:27.786Z,14.34
2017-09-25T07:07:36.653Z,14.44
2017-09-25T07:08:45.521Z,14.57
2017-09-25T07:09:54.388Z,14.45
2017-09-25T07:11:03.272Z,14.52
2017-09-25T07:12:11.815Z,14.52
2017-09-25T07:13:20.684Z,14.57
2017-09-25T07:14:29.550Z,14.61
2017-09-25T07:15:38.095Z,14.7
2017-09-25T07:16:46.647Z,14.69
2017-09-25T07:17:55.193Z,14.66
2017-09-25T07:19:03.739Z,14.74
2017-09-25T07:20:12.370Z,14.77
2017-09-25T07:21:21.360Z,14.77
2017-09-25T07:22:30.200Z,14.77
2017-09-25T07:23:39.069Z,14.83
2017-09-25T07:24:48.263Z,14.86
2017-09-25T07:26:00.678Z,14.8
2017-09-25T07:27:09.230Z,14.93
2017-09-25T07:28:18.110Z,15
2017-09-25T07:29:26.985Z,15.01
2017-09-25T07:30:35.533Z,15
2017-09-25T07:31:44.398Z,15.13
2017-09-25T07:32:52.944Z,15.08
2017-09-25T07:34:01.818Z,15.16
2017-09-25T07:35:10.374Z,15.15
2017-09-25T07:36:19.246Z,15.19
2017-09-25T07:37:28.127Z,15.23
2017-09-25T07:38:36.677Z,15.12
2017-09-25T07:39:45.251Z,15.3
2017-09-25T07:40:53.908Z,15.25
2017-09-25T07:42:02.786Z,15.2
2017-09-25T07:43:11.986Z,15.26
2017-09-25T07:44:20.851Z,15.27
2017-09-25T07:45:29.741Z,15.26
2017-09-25T07:46:38.616Z,15.3
2017-09-25T07:47:47.810Z,15.3
2017-09-25T07:48:56.679Z,15.31
2017-09-25T07:50:05.224Z,15.35
2017-09-25T07:51:14.436Z,15.33
2017-09-25T07:52:22.981Z,15.31
2017-09-25T07:53:32.124Z,15.25
2017-09-25T07:54:40.663Z,15.26
2017-09-25T07:55:49.209Z,15.34
2017-09-25T07:56:57.751Z,15.43
2017-09-25T07:58:07.043Z,15.44
2017-09-25T07:59:15.913Z,15.45
2017-09-25T08:00:24.457Z,15.47
2017-09-25T08:01:33.838Z,15.49
2017-09-25T08:02:42.887Z,15.52
2017-09-25T08:03:51.433Z,15.59
2017-09-25T08:05:01.775Z,15.55
2017-09-25T08:06:11.462Z,15.51
2017-09-25T08:07:20.684Z,15.58
2017-09-25T08:08:29.896Z,15.47
2017-09-25T08:09:39.425Z,15.49
2017-09-25T08:10:48.591Z,15.58
2017-09-25T08:11:57.338Z,15.65
2017-09-25T08:13:06.203Z,15.68
2017-09-25T08:14:14.747Z,15.67
2017-09-25T08:15:23.614Z,15.63
2017-09-25T08:16:32.157Z,15.74
2017-09-25T08:17:40.704Z,15.67
2017-09-25T08:18:49.572Z,15.71
2017-09-25T08:19:58.117Z,15.68
2017-09-25T08:21:06.991Z,15.67
2017-09-25T08:22:15.787Z,15.75
2017-09-25T08:23:26.090Z,15.67
2017-09-25T08:24:35.189Z,15.65
2017-09-25T08:25:44.497Z,15.67
2017-09-25T08:26:53.444Z,15.71
2017-09-25T08:28:02.369Z,15.68
2017-09-25T08:29:11.397Z,15.65
2017-09-25T08:30:20.377Z,15.65
2017-09-25T08:31:29.242Z,15.75
2017-09-25T08:32:38.110Z,15.83
2017-09-25T08:33:47.074Z,15.8
2017-09-25T08:34:56.291Z,15.81
2017-09-25T08:36:05.095Z,15.84
2017-09-25T08:37:14.014Z,15.91
2017-09-25T08:38:22.737Z,15.78
2017-09-25T08:39:31.610Z,15.84
2017-09-25T08:40:40.163Z,15.84
2017-09-25T08:41:49.356Z,15.86
2017-09-25T08:42:57.911Z,15.91
2017-09-25T08:44:06.790Z,15.92
2017-09-25T08:45:15.585Z,15.88
2017-09-25T08:46:24.135Z,15.98
2017-09-25T08:47:33.693Z,15.96
2017-09-25T08:48:42.857Z,16.04
2017-09-25T08:49:52.049Z,16.11
2017-09-25T08:51:02.185Z,16.16
2017-09-25T08:52:10.732Z,16.26
2017-09-25T08:53:19.608Z,16.39
2017-09-25T08:54:28.157Z,16.4
2017-09-25T08:55:36.703Z,16.45
2017-09-25T08:56:45.645Z,16.59
2017-09-25T08:57:54.921Z,16.57
2017-09-25T08:59:03.474Z,16.58
2017-09-25T09:00:12.343Z,16.62
2017-09-25T09:01:20.893Z,16.65
2017-09-25T09:02:29.767Z,16.74
2017-09-25T09:03:38.314Z,16.7
2017-09-25T09:04:47.184Z,16.76
2017-09-25T09:05:56.074Z,16.82
2017-09-25T09:07:04.622Z,16.69
2017-09-25T09:08:13.545Z,16.66
2017-09-25T09:09:22.166Z,16.69
2017-09-25T09:10:30.712Z,16.72
2017-09-25T09:11:39.258Z,16.73
2017-09-25T09:12:48.133Z,16.76
2017-09-25T09:13:56.686Z,16.81
2017-09-25T09:15:05.881Z,16.82
2017-09-25T09:16:14.748Z,16.77
2017-09-25T09:17:23.618Z,16.77
2017-09-25T09:18:32.494Z,16.82
2017-09-25T09:19:41.104Z,16.8
2017-09-25T09:20:49.975Z,16.82
2017-09-25T09:21:59.562Z,16.8
2017-09-25T09:23:09.078Z,16.82
2017-09-25T09:24:17.967Z,16.84
2017-09-25T09:25:26.590Z,16.91
2017-09-25T09:26:35.667Z,17.03
2017-09-25T09:27:44.231Z,17.12
2017-09-25T09:28:53.369Z,17.27
2017-09-25T09:30:01.917Z,17.35
2017-09-25T09:31:10.814Z,17.27
2017-09-25T09:32:19.362Z,17.38
2017-09-25T09:33:27.922Z,17.36
2017-09-25T09:34:36.811Z,17.39
2017-09-25T09:35:45.364Z,17.39
2017-09-25T09:36:53.914Z,17.36
2017-09-25T09:38:03.108Z,17.63
2017-09-25T09:39:11.982Z,17.6
2017-09-25T09:40:20.535Z,17.77
2017-09-25T09:41:29.405Z,17.87
2017-09-25T09:42:38.601Z,17.77
2017-09-25T09:43:47.476Z,17.84
2017-09-25T09:44:56.024Z,17.81
2017-09-25T09:46:04.894Z,17.77
2017-09-25T09:47:13.773Z,17.81
2017-09-25T09:48:22.640Z,17.84
2017-09-25T09:49:31.508Z,17.88
2017-09-25T09:50:40.051Z,17.9
2017-09-25T09:51:48.938Z,17.83
2017-09-25T09:52:57.483Z,17.86
2017-09-25T09:54:06.354Z,17.8
2017-09-25T09:55:14.902Z,17.71
2017-09-25T09:56:23.770Z,17.65
2017-09-25T09:57:32.638Z,17.6
2017-09-25T09:58:41.193Z,17.6
2017-09-25T09:59:50.065Z,17.58
2017-09-25T10:00:58.612Z,17.55
2017-09-25T10:02:07.161Z,17.57
2017-09-25T10:03:16.034Z,17.5
2017-09-25T10:04:24.905Z,17.47
2017-09-25T10:05:33.779Z,17.4
2017-09-25T10:06:42.648Z,17.3
2017-09-25T10:07:51.192Z,17.32
2017-09-25T10:09:00.392Z,17.31
2017-09-25T10:10:09.270Z,17.39
2017-09-25T10:11:18.137Z,17.35
2017-09-25T10:12:27.007Z,17.4
2017-09-25T10:13:35.875Z,17.45
2017-09-25T10:14:44.423Z,17.62
2017-09-25T10:15:52.969Z,17.65
2017-09-25T10:17:01.847Z,17.66
2017-09-25T10:18:11.903Z,17.84
2017-09-25T10:19:20.805Z,17.86
2017-09-25T10:20:30.002Z,17.87
2017-09-25T10:21:39.691Z,18.01
2017-09-25T10:22:48.967Z,17.9
2017-09-25T10:23:58.076Z,17.99
2017-09-25T10:25:06.630Z,17.9
2017-09-25T10:26:15.674Z,17.88
2017-09-25T10:27:24.312Z,17.94
2017-09-25T10:28:33.533Z,17.88
2017-09-25T10:29:42.407Z,17.9
2017-09-25T10:30:51.280Z,17.94
2017-09-25T10:32:01.343Z,18.02
2017-09-25T10:33:10.418Z,18.01
2017-09-25T10:34:18.973Z,17.98
2017-09-25T10:35:27.841Z,18.11
2017-09-25T10:36:36.706Z,18.02
2017-09-25T10:37:45.928Z,18.2
2017-09-25T10:38:54.794Z,18.19
2017-09-25T10:40:03.342Z,18.35
2017-09-25T10:41:11.890Z,18.34
2017-09-25T10:42:20.758Z,18.5
2017-09-25T10:43:29.629Z,18.69
2017-09-25T10:44:38.493Z,18.66
2017-09-25T10:45:47.040Z,18.72
2017-09-25T10:46:55.914Z,18.79
2017-09-25T10:48:04.464Z,18.89
2017-09-25T10:49:13.361Z,18.82
2017-09-25T10:50:21.922Z,18.82
2017-09-25T10:51:30.477Z,18.82
2017-09-25T10:52:39.026Z,18.81
2017-09-25T10:53:47.906Z,18.76
2017-09-25T10:54:56.464Z,18.79
2017-09-25T10:56:05.343Z,18.72
2017-09-25T10:57:14.236Z,18.81
2017-09-25T10:58:23.108Z,18.86
2017-09-25T10:59:31.981Z,18.9
2017-09-25T11:00:40.528Z,19.05
2017-09-25T11:01:49.075Z,19.09
2017-09-25T11:02:57.966Z,19.24
2017-09-25T11:04:06.815Z,19.27
2017-09-25T11:05:15.365Z,19.31
2017-09-25T11:06:24.236Z,19.5
2017-09-25T11:07:33.203Z,19.38
2017-09-25T11:08:41.772Z,19.24
2017-09-25T11:09:50.322Z,19.24
2017-09-25T11:10:59.516Z,19.25
2017-09-25T11:12:08.405Z,19.19
2017-09-25T11:13:17.304Z,19.17
2017-09-25T11:14:26.170Z,19.17
2017-09-25T11:15:34.718Z,19.15
2017-09-25T11:16:43.263Z,19.34
2017-09-25T11:17:51.813Z,19.24
2017-09-25T11:19:00.685Z,19.23
2017-09-25T11:20:09.235Z,19.15
2017-09-25T11:21:18.434Z,19.2
2017-09-25T11:22:27.304Z,19.17
2017-09-25T11:23:35.852Z,19.13
2017-09-25T11:24:44.730Z,18.99
2017-09-25T11:25:53.599Z,19.07
2017-09-25T11:27:02.150Z,19.05
2017-09-25T11:28:10.700Z,18.9
2017-09-25T11:29:19.571Z,18.86
2017-09-25T11:30:28.443Z,18.87
2017-09-25T11:31:37.633Z,18.81
2017-09-25T11:32:46.510Z,18.86
2017-09-25T11:33:55.381Z,18.94
2017-09-25T11:35:04.249Z,18.93
2017-09-25T11:36:12.794Z,18.93
2017-09-25T11:37:21.345Z,18.97
2017-09-25T11:38:30.551Z,18.87
2017-09-25T11:39:39.205Z,18.99
2017-09-25T11:40:49.049Z,19.09
2017-09-25T11:41:57.595Z,19.23
2017-09-25T11:43:06.144Z,19.3
2017-09-25T11:44:15.014Z,19.43
2017-09-25T11:45:23.886Z,19.47
2017-09-25T11:46:32.765Z,19.56
2017-09-25T11:47:41.635Z,19.63
2017-09-25T11:48:50.505Z,19.71
2017-09-25T11:49:59.060Z,19.68
2017-09-25T11:51:07.943Z,19.7
2017-09-25T11:52:17.134Z,19.75
2017-09-25T11:53:26.006Z,19.75
2017-09-25T11:54:34.560Z,19.92
2017-09-25T11:55:43.433Z,19.86
2017-09-25T11:56:51.980Z,19.9
2017-09-25T11:58:00.859Z,19.97
2017-09-25T11:59:09.402Z,20.05
2017-09-25T12:00:18.273Z,20.07
2017-09-25T12:01:26.823Z,20.18
2017-09-25T12:02:35.372Z,20.22
2017-09-25T12:03:44.244Z,20.3
2017-09-25T12:04:52.792Z,20.25
2017-09-25T12:06:01.343Z,20.4
2017-09-25T12:07:10.214Z,20.38
2017-09-25T12:08:19.409Z,20.41
2017-09-25T12:09:28.277Z,20.53
2017-09-25T12:10:37.149Z,20.51
2017-09-25T12:11:45.699Z,20.56
2017-09-25T12:12:55.432Z,20.54
2017-09-25T12:14:04.643Z,20.51
2017-09-25T12:15:13.402Z,20.48
2017-09-25T12:16:22.064Z,20.53
2017-09-25T12:17:30.939Z,20.49
2017-09-25T12:18:39.492Z,20.37
2017-09-25T12:19:48.365Z,20.35
2017-09-25T12:20:56.952Z,20.41
2017-09-25T12:22:05.501Z,20.41
2017-09-25T12:23:14.049Z,20.37
2017-09-25T12:24:22.783Z,20.42
2017-09-25T12:25:31.475Z,20.37
2017-09-25T12:26:40.992Z,20.34
2017-09-25T12:27:49.540Z,20.41
2017-09-25T12:28:58.088Z,20.48
2017-09-25T12:30:07.286Z,20.49
2017-09-25T12:31:15.837Z,20.51
2017-09-25T12:32:24.387Z,20.46
2017-09-25T12:33:33.265Z,20.41
2017-09-25T12:34:42.145Z,20.4
2017-09-25T12:35:51.013Z,20.37
2017-09-25T12:36:59.562Z,20.34
2017-09-25T12:38:08.110Z,20.42
2017-09-25T12:39:16.984Z,20.37
2017-09-25T12:40:25.537Z,20.27
2017-09-25T12:41:34.082Z,20.32
2017-09-25T12:42:42.675Z,20.23
2017-09-25T12:43:51.866Z,20.15
2017-09-25T12:45:01.090Z,20.08
2017-09-25T12:46:09.961Z,20.04
2017-09-25T12:47:18.509Z,20.02
2017-09-25T12:48:27.055Z,19.93
2017-09-25T12:49:35.609Z,20
2017-09-25T12:50:44.160Z,20
2017-09-25T12:51:53.038Z,20.02
2017-09-25T12:53:01.586Z,20.07
2017-09-25T12:54:10.150Z,20.15
2017-09-25T12:55:19.021Z,20.12
2017-09-25T12:56:28.294Z,20.15
2017-09-25T12:57:37.172Z,20.15
2017-09-25T12:58:45.723Z,20.18
2017-09-25T12:59:54.596Z,20.22
2017-09-25T13:01:03.146Z,20.25
2017-09-25T13:02:12.018Z,20.38
2017-09-25T13:03:21.535Z,20.37
2017-09-25T13:04:30.090Z,20.49
2017-09-25T13:05:38.639Z,20.54
2017-09-25T13:06:47.841Z,20.49
2017-09-25T13:07:56.722Z,20.6
2017-09-25T13:09:05.267Z,20.58
2017-09-25T13:10:13.818Z,20.64
2017-09-25T13:11:22.363Z,20.56
2017-09-25T13:12:31.558Z,20.61
2017-09-25T13:13:40.436Z,20.64
2017-09-25T13:14:49.274Z,20.61
2017-09-25T13:15:57.989Z,20.67
2017-09-25T13:17:06.541Z,20.64
2017-09-25T13:18:15.096Z,20.66
2017-09-25T13:19:23.641Z,20.61
2017-09-25T13:20:32.695Z,20.61
2017-09-25T13:21:41.677Z,20.56
2017-09-25T13:22:50.878Z,20.72
2017-09-25T13:23:59.755Z,20.74
2017-09-25T13:25:08.632Z,20.74
2017-09-25T13:26:17.508Z,20.71
2017-09-25T13:27:26.057Z,20.74
2017-09-25T13:28:35.254Z,20.83
2017-09-25T13:29:43.930Z,20.81
2017-09-25T13:30:52.519Z,20.88
2017-09-25T13:32:01.060Z,20.9
2017-09-25T13:33:09.611Z,20.91
2017-09-25T13:34:18.493Z,20.82
2017-09-25T13:35:27.701Z,20.91
2017-09-25T13:36:36.577Z,20.97
2017-09-25T13:37:45.465Z,21
2017-09-25T13:38:54.020Z,21.04
2017-09-25T13:40:02.565Z,21.06
2017-09-25T13:41:11.439Z,21.11
2017-09-25T13:42:20.318Z,21.09
2017-09-25T13:43:29.192Z,21.12
2017-09-25T13:44:37.742Z,21.21
2017-09-25T13:45:46.293Z,21.23
2017-09-25T13:46:55.489Z,21.12
2017-09-25T13:48:04.685Z,21.16
2017-09-25T13:49:13.234Z,21.23
2017-09-25T13:50:22.104Z,21.25
2017-09-25T13:51:30.653Z,21.21
2017-09-25T13:52:39.524Z,21.18
2017-09-25T13:53:48.394Z,21.25
2017-09-25T13:54:57.591Z,21.19
2017-09-25T13:56:06.473Z,21.25
2017-09-25T13:57:15.027Z,21.11
2017-09-25T13:58:23.579Z,21.16
2017-09-25T14:02:48.951Z,21.12
2017-09-25T14:03:57.831Z,21.15
2017-09-25T14:05:06.705Z,21.15
2017-09-25T14:06:15.261Z,21.08
2017-09-25T14:07:23.816Z,21.04
2017-09-25T14:08:32.370Z,21.04
2017-09-25T14:09:40.946Z,21.09
2017-09-25T14:10:49.815Z,21.15
2017-09-25T14:11:58.689Z,21.12
2017-09-25T14:13:07.568Z,21.06
2017-09-25T14:14:16.126Z,21
2017-09-25T14:15:25.324Z,21
2017-09-25T14:16:34.840Z,20.96
2017-09-25T14:17:43.707Z,21.01
2017-09-25T14:18:52.903Z,21.04
2017-09-25T14:20:01.451Z,21.03
2017-09-25T14:21:09.999Z,21.09
2017-09-25T14:22:18.870Z,21.06
2017-09-25T14:23:27.418Z,21.11
2017-09-25T14:24:36.289Z,21.08
2017-09-25T14:25:45.170Z,21.09
2017-09-25T14:26:54.380Z,21.13
2017-09-25T14:28:03.258Z,21.03
2017-09-25T14:29:12.142Z,20.98
2017-09-25T14:30:21.338Z,20.97
2017-09-25T14:31:30.211Z,20.98
2017-09-25T14:32:38.761Z,20.93
2017-09-25T14:33:47.306Z,20.9
2017-09-25T14:34:55.851Z,20.78
2017-09-25T14:36:04.400Z,20.82
2017-09-25T14:37:13.275Z,20.79
2017-09-25T14:38:21.826Z,20.72
2017-09-25T14:39:31.025Z,20.67
2017-09-25T14:40:39.898Z,20.75
2017-09-25T14:41:48.772Z,20.72
2017-09-25T14:42:58.291Z,20.74
2017-09-25T14:44:06.840Z,20.74
2017-09-25T14:45:15.713Z,20.82
2017-09-25T14:46:24.587Z,20.76
2017-09-25T14:47:33.138Z,20.79
2017-09-25T14:48:42.011Z,20.75
2017-09-25T14:49:50.595Z,20.68
2017-09-25T14:50:59.100Z,20.53
2017-09-25T14:52:07.647Z,20.67
2017-09-25T14:53:16.522Z,20.63